createdAt,value
2022-08-12T00:00:09.660Z,101801.50
2022-08-12T00:02:04.362Z,101800.72
2022-08-12T00:03:10.647Z,101804.22
2022-08-12T00:04:35.385Z,101805.88
2022-08-12T00:06:04.327Z,101807.75
2022-08-12T00:07:26.617Z,101796.94
2022-08-12T00:08:51.599Z,101803.19
2022-08-12T00:10:12.058Z,101801.28
2022-08-12T00:11:33.345Z,101802.34
2022-08-12T00:12:54.136Z,101799.66
2022-08-12T00:14:14.807Z,101796.94
2022-08-12T00:15:36.917Z,101793.41
2022-08-12T00:16:57.487Z,101794.47
2022-08-12T00:18:18.207Z,101798.00
2022-08-12T00:19:39.027Z,101793.63
2022-08-12T00:21:00.642Z,101796.31
2022-08-12T00:22:21.018Z,101794.69
2022-08-12T00:23:41.655Z,101786.56
2022-08-12T00:25:04.494Z,101788.66
2022-08-12T00:26:25.386Z,101795.16
2022-08-12T00:27:46.633Z,101791.84
2022-08-12T00:29:08.350Z,101790.16
2022-08-12T00:30:30.689Z,101793.09
2022-08-12T00:31:51.344Z,101785.22
2022-08-12T00:33:12.021Z,101787.31
2022-08-12T00:34:34.381Z,101789.22
2022-08-12T00:35:55.036Z,101789.44
2022-08-12T00:37:15.816Z,101788.81
2022-08-12T00:38:36.184Z,101790.09
2022-08-12T00:39:57.536Z,101793.25
2022-08-12T00:41:21.227Z,101789.94
2022-08-12T00:42:24.508Z,101802.03
2022-08-12T00:43:28.507Z,101797.09
2022-08-12T00:44:30.654Z,101793.78
2022-08-12T00:45:55.374Z,101797.47
2022-08-12T00:46:59.094Z,101786.28
2022-08-12T00:48:02.576Z,101792.75
2022-08-12T00:49:06.142Z,101791.91
2022-08-12T00:50:17.904Z,101795.69
2022-08-12T00:51:20.392Z,101794.22
2022-08-12T00:52:25.270Z,101790.72
2022-08-12T00:53:28.842Z,101798.00
2022-08-12T00:54:32.343Z,101801.78
2022-08-12T00:55:35.751Z,101794.69
2022-08-12T00:56:39.896Z,101793.03
2022-08-12T00:57:47.923Z,101793.28
2022-08-12T00:58:52.708Z,101791.59
2022-08-12T00:59:58.442Z,101788.31
2022-08-12T01:01:03.283Z,101792.66
2022-08-12T01:02:11.181Z,101788.50
2022-08-12T01:03:18.702Z,101801.44
2022-08-12T01:04:41.089Z,101794.38
2022-08-12T01:06:04.660Z,101789.19
2022-08-12T01:07:27.690Z,101796.47
2022-08-12T01:08:44.637Z,101792.34
2022-08-12T01:10:18.578Z,101792.34
2022-08-12T01:11:32.988Z,101788.19
2022-08-12T01:12:38.375Z,101792.78
2022-08-12T01:13:47.268Z,101786.78
2022-08-12T01:14:50.867Z,101787.84
2022-08-12T01:15:55.804Z,101787.00
2022-08-12T01:16:59.887Z,101786.38
2022-08-12T01:18:05.749Z,101787.22
2022-08-12T01:19:08.705Z,101773.75
2022-08-12T01:20:19.713Z,101788.69
2022-08-12T01:21:43.798Z,101784.34
2022-08-12T01:23:00.379Z,101783.75
2022-08-12T01:24:29.446Z,101786.66
2022-08-12T01:25:55.653Z,101787.91
2022-08-12T01:26:59.501Z,101788.16
2022-08-12T01:28:05.207Z,101788.38
2022-08-12T01:29:10.496Z,101786.72
2022-08-12T01:30:16.322Z,101788.81
2022-08-12T01:31:19.853Z,101786.13
2022-08-12T01:32:24.995Z,101792.59
2022-08-12T01:33:31.873Z,101789.25
2022-08-12T01:34:38.593Z,101786.56
2022-08-12T01:36:07.843Z,101784.31
2022-08-12T01:37:10.412Z,101785.09
2022-08-12T01:38:17.303Z,101778.06
2022-08-12T01:39:22.107Z,101783.47
2022-08-12T01:40:35.211Z,101782.63
2022-08-12T01:41:51.126Z,101782.84
2022-08-12T01:42:58.726Z,101779.31
2022-08-12T01:44:03.031Z,101780.38
2022-08-12T01:45:06.745Z,101776.03
2022-08-12T01:46:15.739Z,101778.75
2022-08-12T01:47:26.254Z,101781.44
2022-08-12T01:48:46.013Z,101768.97
2022-08-12T01:50:04.465Z,101774.59
2022-08-12T01:52:14.646Z,101772.09
2022-08-12T01:52:56.605Z,101777.72
2022-08-12T01:54:04.815Z,101769.84
2022-08-12T01:55:08.942Z,101769.84
2022-08-12T01:56:12.371Z,101770.88
2022-08-12T01:57:57.681Z,101775.69
2022-08-12T01:59:04.932Z,101784.00
2022-08-12T02:00:13.588Z,101776.72
2022-08-12T02:01:16.007Z,101771.75
2022-08-12T02:02:20.494Z,101782.34
2022-08-12T02:04:08.141Z,101770.72
2022-08-12T02:05:39.109Z,101775.53
2022-08-12T02:07:01.834Z,101778.22
2022-08-12T02:08:45.749Z,101771.16
2022-08-12T02:10:50.610Z,101771.16
2022-08-12T02:11:49.016Z,101774.06
2022-08-12T02:13:10.054Z,101774.06
2022-08-12T02:14:28.551Z,101771.59
2022-08-12T02:15:41.667Z,101779.69
2022-08-12T02:16:58.107Z,101776.38
2022-08-12T02:18:12.612Z,101772.84
2022-08-12T02:19:28.634Z,101773.91
2022-08-12T02:20:51.317Z,101768.72
2022-08-12T02:22:12.775Z,101772.47
2022-08-12T02:23:19.326Z,101780.59
2022-08-12T02:24:24.957Z,101770.81
2022-08-12T02:25:34.441Z,101774.56
2022-08-12T02:26:41.710Z,101767.50
2022-08-12T02:27:45.923Z,101772.91
2022-08-12T02:28:52.146Z,101771.25
2022-08-12T02:29:54.359Z,101769.59
2022-08-12T02:31:02.867Z,101774.16
2022-08-12T02:32:05.975Z,101775.19
2022-08-12T02:33:09.138Z,101771.69
2022-08-12T02:34:12.950Z,101769.00
2022-08-12T02:35:19.655Z,101771.28
2022-08-12T02:36:22.194Z,101775.41
2022-08-12T02:37:27.941Z,101768.38
2022-08-12T02:38:31.160Z,101778.34
2022-08-12T02:39:38.428Z,101772.50
2022-08-12T02:40:42.943Z,101765.47
2022-08-12T02:41:49.859Z,101770.66
2022-08-12T02:42:57.987Z,101767.13
2022-08-12T02:44:08.729Z,101764.63
2022-08-12T02:45:12.062Z,101774.63
2022-08-12T02:46:19.518Z,101758.84
2022-08-12T02:47:58.869Z,101757.81
2022-08-12T02:48:51.205Z,101759.69
2022-08-12T02:49:56.724Z,101768.84
2022-08-12T02:51:05.626Z,101760.13
2022-08-12T02:52:07.958Z,101756.34
2022-08-12T02:53:12.703Z,101769.06
2022-08-12T02:54:15.416Z,101760.13
2022-08-12T02:55:34.611Z,101767.38
2022-08-12T02:56:41.388Z,101761.97
2022-08-12T02:57:44.659Z,101763.03
2022-08-12T02:58:48.468Z,101763.03
2022-08-12T02:59:54.118Z,101761.34
2022-08-12T03:00:57.650Z,101758.88
2022-08-12T03:02:03.501Z,101754.53
2022-08-12T03:03:08.956Z,101757.47
2022-08-12T03:04:20.890Z,101758.50
2022-08-12T03:05:25.396Z,101756.84
2022-08-12T03:06:34.250Z,101749.81
2022-08-12T03:07:56.068Z,101751.06
2022-08-12T03:09:03.829Z,101759.38
2022-08-12T03:10:15.967Z,101755.03
2022-08-12T03:11:26.914Z,101751.72
2022-08-12T03:12:34.208Z,101753.78
2022-08-12T03:13:54.577Z,101750.47
2022-08-12T03:14:59.417Z,101749.84
2022-08-12T03:16:02.956Z,101750.06
2022-08-12T03:17:16.039Z,101749.25
2022-08-12T03:18:28.440Z,101755.69
2022-08-12T03:19:31.240Z,101757.56
2022-08-12T03:20:37.799Z,101749.69
2022-08-12T03:21:55.368Z,101742.63
2022-08-12T03:23:10.120Z,101749.88
2022-08-12T03:24:27.328Z,101749.09
2022-08-12T03:25:37.466Z,101750.13
2022-08-12T03:26:42.788Z,101749.28
2022-08-12T03:27:51.805Z,101750.13
2022-08-12T03:28:58.104Z,101748.47
2022-08-12T03:30:02.747Z,101747.63
2022-08-12T03:31:07.844Z,101743.28
2022-08-12T03:32:35.645Z,101746.22
2022-08-12T03:33:37.321Z,101752.63
2022-08-12T03:34:42.134Z,101741.00
2022-08-12T03:35:47.288Z,101742.88
2022-08-12T03:36:55.372Z,101743.09
2022-08-12T03:38:00.901Z,101743.31
2022-08-12T03:39:37.013Z,101745.41
2022-08-12T03:41:09.892Z,101742.94
2022-08-12T03:42:28.407Z,101741.47
2022-08-12T03:43:53.080Z,101739.00
2022-08-12T03:45:49.993Z,101742.97
2022-08-12T03:47:21.291Z,101745.03
2022-08-12T03:48:43.583Z,101735.50
2022-08-12T03:50:04.717Z,101734.69
2022-08-12T03:51:26.490Z,101745.06
2022-08-12T03:52:47.226Z,101732.19
2022-08-12T03:54:11.331Z,101741.31
2022-08-12T03:55:33.238Z,101735.09
2022-08-12T03:56:54.000Z,101737.78
2022-08-12T03:58:14.582Z,101734.28
2022-08-12T03:59:35.035Z,101736.97
2022-08-12T04:00:39.862Z,101727.44
2022-08-12T04:01:42.668Z,101733.44
2022-08-12T04:02:56.601Z,101734.50
2022-08-12T04:04:02.118Z,101735.53
2022-08-12T04:05:07.995Z,101741.75
2022-08-12T04:06:10.579Z,101737.19
2022-08-12T04:07:16.443Z,101732.81
2022-08-12T04:08:22.935Z,101733.66
2022-08-12T04:09:26.802Z,101736.34
2022-08-12T04:10:51.246Z,101747.16
2022-08-12T04:12:12.216Z,101730.97
2022-08-12T04:13:18.578Z,101738.00
2022-08-12T04:14:21.738Z,101743.41
2022-08-12T04:15:28.940Z,101746.31
2022-08-12T04:16:34.456Z,101741.53
2022-08-12T04:17:37.872Z,101738.00
2022-08-12T04:19:01.613Z,101739.69
2022-08-12T04:20:05.348Z,101739.69
2022-08-12T04:21:10.666Z,101736.13
2022-08-12T04:22:12.948Z,101738.84
2022-08-12T04:23:17.053Z,101737.78
2022-08-12T04:24:20.054Z,101736.97
2022-08-12T04:25:25.686Z,101728.06
2022-08-12T04:26:28.430Z,101741.53
2022-08-12T04:27:32.418Z,101733.44
2022-08-12T04:28:35.275Z,101732.59
2022-08-12T04:30:31.276Z,101738.00
2022-08-12T04:31:01.881Z,101742.59
2022-08-12T04:32:07.673Z,101735.31
2022-08-12T04:33:09.796Z,101739.69
2022-08-12T04:34:13.027Z,101739.69
2022-08-12T04:35:15.824Z,101748.56
2022-08-12T04:36:19.354Z,101736.75
2022-08-12T04:37:23.288Z,101744.84
2022-08-12T04:38:26.745Z,101736.53
2022-08-12T04:39:29.306Z,101732.78
2022-08-12T04:40:36.447Z,101743.38
2022-08-12T04:41:39.469Z,101744.19
2022-08-12T04:43:02.473Z,101742.34
2022-08-12T04:44:05.145Z,101745.66
2022-08-12T04:45:09.843Z,101743.56
2022-08-12T04:46:18.464Z,101746.03
2022-08-12T04:47:25.923Z,101740.44
2022-08-12T04:48:28.072Z,101749.97
2022-08-12T04:49:34.828Z,101740.81
2022-08-12T04:50:38.261Z,101743.09
2022-08-12T04:51:41.866Z,101741.00
2022-08-12T04:52:55.720Z,101751.59
2022-08-12T04:54:00.218Z,101744.09
2022-08-12T04:55:03.293Z,101746.56
2022-08-12T04:56:06.868Z,101741.00
2022-08-12T04:57:09.867Z,101748.88
2022-08-12T04:58:14.791Z,101743.88
2022-08-12T04:59:17.419Z,101742.81
2022-08-12T05:00:20.779Z,101738.25
2022-08-12T05:01:27.827Z,101735.34
2022-08-12T05:02:32.935Z,101734.06
2022-08-12T05:03:46.120Z,101738.22
2022-08-12T05:04:52.752Z,101734.47
2022-08-12T05:05:56.669Z,101740.47
2022-08-12T05:06:59.784Z,101740.25
2022-08-12T05:08:01.965Z,101735.47
2022-08-12T05:09:10.947Z,101743.13
2022-08-12T05:10:16.636Z,101742.91
2022-08-12T05:11:23.116Z,101727.31
2022-08-12T05:12:28.518Z,101736.03
2022-08-12T05:13:37.958Z,101735.59
2022-08-12T05:14:40.116Z,101732.44
2022-08-12T05:16:02.598Z,101733.91
2022-08-12T05:17:09.548Z,101731.00
2022-08-12T05:18:19.519Z,101731.41
2022-08-12T05:19:44.783Z,101730.13
2022-08-12T05:20:48.800Z,101735.69
2022-08-12T05:21:52.009Z,101734.44
2022-08-12T05:23:12.175Z,101738.34
2022-08-12T05:24:16.457Z,101731.69
2022-08-12T05:25:20.255Z,101733.94
2022-08-12T05:26:25.679Z,101735.16
2022-08-12T05:27:28.026Z,101737.44
2022-08-12T05:28:32.682Z,101733.22
2022-08-12T05:30:07.936Z,101738.19
2022-08-12T05:31:01.761Z,101739.41
2022-08-12T05:32:05.567Z,101743.31
2022-08-12T05:33:08.680Z,101733.94
2022-08-12T05:34:14.739Z,101736.00
2022-08-12T05:35:17.959Z,101726.66
2022-08-12T05:36:23.933Z,101742.13
2022-08-12T05:37:27.058Z,101736.50
2022-08-12T05:38:47.608Z,101739.59
2022-08-12T05:39:50.238Z,101737.28
2022-08-12T05:40:53.795Z,101733.75
2022-08-12T05:41:56.025Z,101735.34
2022-08-12T05:42:59.149Z,101742.78
2022-08-12T05:44:04.658Z,101740.66
2022-08-12T05:45:09.116Z,101740.22
2022-08-12T05:46:11.284Z,101745.19
2022-08-12T05:47:16.312Z,101748.47
2022-08-12T05:48:19.137Z,101749.69
2022-08-12T05:49:23.718Z,101745.72
2022-08-12T05:50:26.557Z,101746.09
2022-08-12T05:51:41.183Z,101751.09
2022-08-12T05:52:44.273Z,101741.47
2022-08-12T05:53:49.887Z,101746.41
2022-08-12T05:54:57.458Z,101746.81
2022-08-12T05:56:01.207Z,101747.19
2022-08-12T05:57:03.615Z,101745.69
2022-08-12T05:58:07.855Z,101751.47
2022-08-12T05:59:11.332Z,101746.44
2022-08-12T06:00:16.685Z,101744.91
2022-08-12T06:02:09.137Z,101739.28
2022-08-12T06:02:46.596Z,101741.09
2022-08-12T06:03:49.906Z,101741.09
2022-08-12T06:04:54.889Z,101744.50
2022-08-12T06:05:58.282Z,101745.94
2022-08-12T06:08:00.423Z,101746.09
2022-08-12T06:08:25.789Z,101743.53
2022-08-12T06:09:30.317Z,101743.06
2022-08-12T06:10:33.497Z,101751.09
2022-08-12T06:11:37.088Z,101744.16
2022-08-12T06:12:39.455Z,101753.50
2022-08-12T06:13:54.551Z,101746.78
2022-08-12T06:14:57.043Z,101752.34
2022-08-12T06:16:00.363Z,101753.53
2022-08-12T06:17:04.509Z,101753.66
2022-08-12T06:18:13.747Z,101749.47
2022-08-12T06:19:22.734Z,101746.75
2022-08-12T06:20:30.095Z,101757.84
2022-08-12T06:21:39.893Z,101757.97
2022-08-12T06:22:43.766Z,101757.31
2022-08-12T06:23:47.083Z,101760.56
2022-08-12T06:24:49.973Z,101751.78
2022-08-12T06:25:53.176Z,101754.38
2022-08-12T06:26:58.146Z,101764.50
2022-08-12T06:28:07.408Z,101757.81
2022-08-12T06:30:08.177Z,101754.38
2022-08-12T06:30:41.337Z,101761.34
2022-08-12T06:31:43.604Z,101765.25
2022-08-12T06:33:11.277Z,101735.66
2022-08-12T06:35:23.119Z,101764.88
2022-08-12T06:35:49.341Z,101764.75
2022-08-12T06:36:55.364Z,101760.53
2022-08-12T06:37:57.780Z,101765.25
2022-08-12T06:39:01.120Z,101762.88
2022-08-12T06:40:04.304Z,101760.53
2022-08-12T06:41:26.141Z,101757.13
2022-08-12T06:42:46.201Z,101755.59
2022-08-12T06:44:05.124Z,101765.50
2022-08-12T06:45:12.334Z,101767.28
2022-08-12T06:46:15.751Z,101766.78
2022-08-12T06:47:19.785Z,101756.78
2022-08-12T06:48:25.166Z,101769.97
2022-08-12T06:49:34.783Z,101764.06
2022-08-12T06:50:40.182Z,101760.63
2022-08-12T06:51:54.476Z,101768.06
2022-08-12T06:53:00.584Z,101767.09
2022-08-12T06:54:03.748Z,101767.44
2022-08-12T06:55:07.463Z,101771.88
2022-08-12T06:56:12.666Z,101773.66
2022-08-12T06:58:06.177Z,101765.88
2022-08-12T06:58:40.748Z,101770.31
2022-08-12T06:59:44.249Z,101768.53
2022-08-12T07:00:47.730Z,101765.91
2022-08-12T07:01:51.659Z,101767.94
2022-08-12T07:02:56.592Z,101768.03
2022-08-12T07:04:14.286Z,101767.28
2022-08-12T07:05:24.715Z,101767.97
2022-08-12T07:06:30.127Z,101769.69
2022-08-12T07:07:32.305Z,101776.31
2022-08-12T07:08:36.563Z,101772.84
2022-08-12T07:10:06.032Z,101774.84
2022-08-12T07:11:04.992Z,101768.41
2022-08-12T07:12:19.830Z,101767.94
2022-08-12T07:13:23.070Z,101758.81
2022-08-12T07:14:25.392Z,101759.47
2022-08-12T07:15:30.593Z,101762.28
2022-08-12T07:16:47.844Z,101756.84
2022-08-12T07:17:51.363Z,101765.16
2022-08-12T07:18:55.468Z,101763.31
2022-08-12T07:20:04.039Z,101763.44
2022-08-12T07:21:09.448Z,101767.06
2022-08-12T07:22:13.886Z,101769.88
2022-08-12T07:23:18.377Z,101763.41
2022-08-12T07:24:20.596Z,101756.34
2022-08-12T07:25:37.869Z,101767.13
2022-08-12T07:26:44.931Z,101757.41
2022-08-12T07:27:47.826Z,101760.72
2022-08-12T07:28:50.991Z,101769.81
2022-08-12T07:29:59.438Z,101760.88
2022-08-12T07:31:12.297Z,101765.59
2022-08-12T07:32:23.704Z,101764.56
2022-08-12T07:33:29.325Z,101764.06
2022-08-12T07:34:31.564Z,101765.78
2022-08-12T07:35:36.119Z,101765.84
2022-08-12T07:36:39.316Z,101766.19
2022-08-12T07:37:42.966Z,101773.59
2022-08-12T07:38:48.949Z,101772.03
2022-08-12T07:40:00.662Z,101764.97
2022-08-12T07:41:07.221Z,101767.75
2022-08-12T07:42:10.195Z,101766.75
2022-08-12T07:43:13.313Z,101775.00
2022-08-12T07:44:18.316Z,101768.19
2022-08-12T07:45:20.958Z,101765.53
2022-08-12T07:46:26.822Z,101768.31
2022-08-12T07:47:28.998Z,101770.25
2022-08-12T07:48:38.014Z,101769.25
2022-08-12T07:50:04.878Z,101772.28
2022-08-12T07:51:03.336Z,101777.53
2022-08-12T07:52:05.530Z,101777.84
2022-08-12T07:53:10.150Z,101771.59
2022-08-12T07:54:13.807Z,101770.03
2022-08-12T07:55:19.419Z,101776.63
2022-08-12T07:56:22.814Z,101774.19
2022-08-12T07:57:25.007Z,101774.50
2022-08-12T07:58:28.232Z,101771.84
2022-08-12T07:59:34.033Z,101774.03
2022-08-12T08:00:40.309Z,101775.44
2022-08-12T08:01:43.538Z,101777.38
2022-08-12T08:02:46.177Z,101779.56
2022-08-12T08:04:19.356Z,101786.97
2022-08-12T08:05:25.005Z,101781.81
2022-08-12T08:06:27.357Z,101782.38
2022-08-12T08:07:31.452Z,101784.59
2022-08-12T08:08:36.024Z,101780.28
2022-08-12T08:09:39.261Z,101780.00
2022-08-12T08:10:42.842Z,101784.94
2022-08-12T08:12:03.250Z,101785.50
2022-08-12T08:13:06.621Z,101785.81
2022-08-12T08:14:10.265Z,101781.19
2022-08-12T08:15:15.137Z,101780.38
2022-08-12T08:16:18.450Z,101779.84
2022-08-12T08:17:20.687Z,101782.03
2022-08-12T08:18:27.520Z,101785.66
2022-08-12T08:20:02.877Z,101777.53
2022-08-12T08:20:57.954Z,101783.84
2022-08-12T08:22:00.237Z,101782.78
2022-08-12T08:23:08.143Z,101783.63
2022-08-12T08:24:15.122Z,101784.50
2022-08-12T08:25:36.630Z,101778.22
2022-08-12T08:26:40.599Z,101773.59
2022-08-12T08:27:45.556Z,101777.19
2022-08-12T08:28:48.824Z,101785.41
2022-08-12T08:29:51.507Z,101780.78
2022-08-12T08:30:54.672Z,101787.38
2022-08-12T08:32:00.198Z,101783.84
2022-08-12T08:33:05.186Z,101780.28
2022-08-12T08:34:54.064Z,101786.09
2022-08-12T08:35:54.329Z,101781.22
2022-08-12T08:36:57.887Z,101780.41
2022-08-12T08:38:11.770Z,101778.50
2022-08-12T08:39:17.983Z,101780.16
2022-08-12T08:40:38.852Z,101781.00
2022-08-12T08:42:15.750Z,101780.19
2022-08-12T08:43:21.850Z,101779.91
2022-08-12T08:44:25.531Z,101779.91
2022-08-12T08:45:28.474Z,101778.31
2022-08-12T08:46:33.056Z,101775.56
2022-08-12T08:47:43.945Z,101779.16
2022-08-12T08:48:47.159Z,101778.88
2022-08-12T08:49:49.325Z,101779.97
2022-08-12T08:51:04.318Z,101777.25
2022-08-12T08:52:09.433Z,101773.44
2022-08-12T08:53:12.794Z,101780.53
2022-08-12T08:54:16.753Z,101774.78
2022-08-12T08:55:27.412Z,101775.63
2022-08-12T08:56:32.373Z,101782.72
2022-08-12T08:57:42.739Z,101773.41
2022-08-12T08:58:46.617Z,101770.41
2022-08-12T08:59:51.800Z,101775.03
2022-08-12T09:00:56.325Z,101781.88
2022-08-12T09:01:58.631Z,101777.47
2022-08-12T09:03:04.234Z,101783.81
2022-08-12T09:05:12.546Z,101772.56
2022-08-12T09:06:02.434Z,101775.28
2022-08-12T09:07:14.949Z,101771.69
2022-08-12T09:10:01.905Z,101773.31
2022-08-12T09:12:07.496Z,101774.41
2022-08-12T09:13:02.536Z,101759.31
2022-08-12T09:14:18.529Z,101773.53
2022-08-12T09:15:21.907Z,101768.84
2022-08-12T09:16:25.506Z,101768.00
2022-08-12T09:17:55.913Z,101767.13
2022-08-12T09:19:02.441Z,101768.53
2022-08-12T09:20:09.452Z,101775.09
2022-08-12T09:21:12.732Z,101753.16
2022-08-12T09:22:18.565Z,101766.56
2022-08-12T09:23:58.599Z,101775.03
2022-08-12T09:24:48.710Z,101769.81
2022-08-12T09:25:50.912Z,101768.94
2022-08-12T09:26:54.231Z,101762.09
2022-08-12T09:28:03.969Z,101755.44
2022-08-12T09:30:11.925Z,101758.69
2022-08-12T09:30:47.289Z,101763.31
2022-08-12T09:32:02.803Z,101764.69
2022-08-12T09:33:15.150Z,101760.81
2022-08-12T09:34:42.030Z,101761.06
2022-08-12T09:35:46.933Z,101756.09
2022-08-12T09:37:19.587Z,101760.22
2022-08-12T09:38:28.613Z,101753.56
2022-08-12T09:40:03.590Z,101767.25
2022-08-12T09:42:08.602Z,101768.81
2022-08-12T09:42:52.979Z,101764.38
2022-08-12T09:44:39.382Z,101763.19
2022-08-12T09:46:06.632Z,101755.44
2022-08-12T09:47:12.083Z,101758.69
2022-08-12T09:48:20.340Z,101759.75
2022-08-12T09:49:25.739Z,101761.63
2022-08-12T09:50:28.204Z,101757.16
2022-08-12T09:51:37.721Z,101754.41
2022-08-12T09:52:46.420Z,101755.47
2022-08-12T09:54:06.037Z,101752.13
2022-08-12T09:56:01.243Z,101749.03
2022-08-12T09:57:02.025Z,101753.38
2022-08-12T09:58:45.698Z,101750.56
2022-08-12T10:00:16.499Z,101737.56
2022-08-12T10:00:51.973Z,101742.72
2022-08-12T10:02:52.983Z,101739.09
2022-08-12T10:03:32.161Z,101744.22
2022-08-12T10:04:36.302Z,101743.84
2022-08-12T10:06:26.618Z,101744.91
2022-08-12T10:07:24.669Z,101743.47
2022-08-12T10:08:30.956Z,101743.38
2022-08-12T10:09:58.199Z,101731.28
2022-08-12T10:11:19.878Z,101737.75
2022-08-12T10:12:43.309Z,101742.34
2022-08-12T10:14:05.484Z,101730.47
2022-08-12T10:16:00.891Z,101738.66
2022-08-12T10:16:43.836Z,101727.56
2022-08-12T10:18:05.856Z,101728.59
2022-08-12T10:19:17.056Z,101724.13
2022-08-12T10:20:20.064Z,101729.34
2022-08-12T10:21:36.079Z,101726.19
2022-08-12T10:22:41.363Z,101728.09
2022-08-12T10:23:48.491Z,101722.28
2022-08-12T10:25:17.128Z,101729.34
2022-08-12T10:26:39.642Z,101726.81
2022-08-12T10:28:04.977Z,101716.00
2022-08-12T10:30:40.545Z,101716.22
2022-08-12T10:30:58.935Z,101721.94
2022-08-12T10:32:20.913Z,101718.91
2022-08-12T10:33:31.676Z,101712.78
2022-08-12T10:34:35.470Z,101710.25
2022-08-12T10:35:38.524Z,101703.59
2022-08-12T10:36:43.119Z,101705.16
2022-08-12T10:38:35.920Z,101704.53
2022-08-12T10:40:00.355Z,101696.50
2022-08-12T10:40:58.684Z,101701.41
2022-08-12T10:42:18.377Z,101700.78
2022-08-12T10:43:54.202Z,101693.84
2022-08-12T10:45:03.737Z,101692.09
2022-08-12T10:46:09.131Z,101690.72
2022-08-12T10:47:26.603Z,101685.75
2022-08-12T10:48:38.905Z,101696.94
2022-08-12T10:50:07.019Z,101692.47
2022-08-12T10:51:51.859Z,101686.34
2022-08-12T10:52:34.378Z,101689.00
2022-08-12T10:53:44.398Z,101695.53
2022-08-12T10:54:51.056Z,101687.16
2022-08-12T10:55:56.366Z,101692.88
2022-08-12T10:57:00.977Z,101685.91
2022-08-12T10:58:14.690Z,101684.19
2022-08-12T11:00:01.408Z,101684.72
2022-08-12T11:01:26.182Z,101682.66
2022-08-12T11:04:19.436Z,101683.88
2022-08-12T11:04:25.805Z,101676.03
2022-08-12T11:05:47.323Z,101674.16
2022-08-12T11:07:05.822Z,101677.97
2022-08-12T11:08:37.114Z,101682.88
2022-08-12T11:09:17.576Z,101672.03
2022-08-12T11:10:40.614Z,101681.31
2022-08-12T11:12:35.672Z,101676.81
2022-08-12T11:13:09.269Z,101671.47
2022-08-12T11:14:48.417Z,101671.16
2022-08-12T11:16:03.593Z,101667.31
2022-08-12T11:17:52.259Z,101668.94
2022-08-12T11:18:23.222Z,101676.56
2022-08-12T11:19:28.377Z,101666.88
2022-08-12T11:20:32.553Z,101670.94
2022-08-12T11:21:58.009Z,101672.28
2022-08-12T11:23:03.829Z,101668.06
2022-08-12T11:24:32.131Z,101669.09
2022-08-12T11:25:58.315Z,101660.16
2022-08-12T11:27:00.946Z,101661.50
2022-08-12T11:28:03.481Z,101661.38
2022-08-12T11:29:22.818Z,101665.13
2022-08-12T11:30:31.347Z,101663.69
2022-08-12T11:31:40.657Z,101659.28
2022-08-12T11:32:56.000Z,101665.34
2022-08-12T11:34:05.858Z,101666.19
2022-08-12T11:35:23.005Z,101660.84
2022-08-12T11:36:26.592Z,101662.97
2022-08-12T11:37:28.867Z,101651.63
2022-08-12T11:38:32.121Z,101662.03
2022-08-12T11:40:58.895Z,101659.13
2022-08-12T11:42:03.091Z,101662.41
2022-08-12T11:43:19.555Z,101650.22
2022-08-12T11:44:37.042Z,101650.72
2022-08-12T11:45:46.872Z,101653.16
2022-08-12T11:46:52.837Z,101650.91
2022-08-12T11:47:56.217Z,101652.53
2022-08-12T11:48:59.295Z,101658.88
2022-08-12T11:50:01.457Z,101645.91
2022-08-12T11:51:04.647Z,101659.06
2022-08-12T11:52:27.279Z,101652.09
2022-08-12T11:53:57.000Z,101647.56
2022-08-12T11:54:54.375Z,101648.75
2022-08-12T11:55:57.097Z,101647.81
2022-08-12T11:57:03.011Z,101650.44
2022-08-12T11:59:18.863Z,101654.69
2022-08-12T12:02:03.114Z,101645.66
2022-08-12T12:02:40.058Z,101651.84
2022-08-12T12:03:46.281Z,101654.00
2022-08-12T12:04:52.164Z,101656.91
2022-08-12T12:05:56.336Z,101652.38
2022-08-12T12:07:07.158Z,101653.38
2022-08-12T12:08:37.697Z,101644.94
2022-08-12T12:09:52.814Z,101645.13
2022-08-12T12:10:56.277Z,101648.84
2022-08-12T12:12:00.880Z,101645.78
2022-08-12T12:13:03.571Z,101639.59
2022-08-12T12:14:15.791Z,101648.06
2022-08-12T12:15:24.724Z,101648.59
2022-08-12T12:16:30.107Z,101643.56
2022-08-12T12:17:38.409Z,101635.75
2022-08-12T12:18:43.759Z,101633.50
2022-08-12T12:19:46.491Z,101633.19
2022-08-12T12:20:49.908Z,101637.56
2022-08-12T12:21:52.133Z,101628.94
2022-08-12T12:22:55.241Z,101641.66
2022-08-12T12:24:00.764Z,101636.91
2022-08-12T12:25:12.513Z,101626.66
2022-08-12T12:26:34.781Z,101633.50
2022-08-12T12:28:06.131Z,101630.09
2022-08-12T12:30:18.484Z,101639.69
2022-08-12T12:30:31.994Z,101631.56
2022-08-12T12:32:10.413Z,101629.63
2022-08-12T12:32:57.434Z,101633.19
2022-08-12T12:34:01.035Z,101630.41
2022-08-12T12:35:13.917Z,101627.03
2022-08-12T12:36:30.188Z,101628.31
2022-08-12T12:38:04.896Z,101630.44
2022-08-12T12:38:56.561Z,101619.84
2022-08-12T12:39:59.264Z,101626.38
2022-08-12T12:41:14.322Z,101624.72
2022-08-12T12:42:41.670Z,101627.03
2022-08-12T12:43:43.243Z,101612.38
2022-08-12T12:44:53.601Z,101625.38
2022-08-12T12:45:57.114Z,101615.47
2022-08-12T12:46:59.394Z,101609.13
2022-08-12T12:48:06.114Z,101607.81
2022-08-12T12:49:11.057Z,101608.13
2022-08-12T12:50:34.709Z,101604.56
2022-08-12T12:51:48.785Z,101601.78
2022-08-12T12:52:52.185Z,101595.78
2022-08-12T12:54:08.201Z,101601.31
2022-08-12T12:55:11.826Z,101605.22
2022-08-12T12:56:20.939Z,101600.81
2022-08-12T12:58:00.580Z,101609.09
2022-08-12T12:59:03.753Z,101606.84
2022-08-12T13:00:16.688Z,101599.03
2022-08-12T13:01:32.895Z,101607.00
2022-08-12T13:02:40.525Z,101602.44
2022-08-12T13:03:49.114Z,101611.41
2022-08-12T13:04:53.712Z,101601.81
2022-08-12T13:06:00.635Z,101597.44
2022-08-12T13:07:03.111Z,101596.75
2022-08-12T13:08:28.116Z,101602.63
2022-08-12T13:09:38.418Z,101600.16
2022-08-12T13:10:43.054Z,101598.84
2022-08-12T13:11:55.293Z,101592.41
2022-08-12T13:14:06.516Z,101595.81
2022-08-12T13:14:28.996Z,101592.78
2022-08-12T13:15:43.206Z,101596.84
2022-08-12T13:16:48.825Z,101596.94
2022-08-12T13:18:03.017Z,101591.81
2022-08-12T13:19:07.914Z,101592.38
2022-08-12T13:20:13.256Z,101597.72
2022-08-12T13:21:56.414Z,101602.31
2022-08-12T13:22:58.524Z,101591.88
2022-08-12T13:24:10.395Z,101594.38
2022-08-12T13:25:14.093Z,101586.22
2022-08-12T13:26:21.146Z,101590.31
2022-08-12T13:27:28.401Z,101594.81
2022-08-12T13:28:37.951Z,101592.16
2022-08-12T13:29:45.108Z,101591.81
2022-08-12T13:30:56.033Z,101588.25
2022-08-12T13:32:28.228Z,101594.19
2022-08-12T13:33:23.721Z,101594.91
2022-08-12T13:34:35.287Z,101593.97
2022-08-12T13:36:06.279Z,101589.78